Observation data for Northfield on 09/19/2019      Previous  Date       Current Mesonet Observations  Soil Data  Daily Summary Page  Observations in Plain Language
KNOR 190500Z 15007KT 25/16 A2996 RMK A01 T02540163  RH  060%=      5-min Rain = 0
KNOR 190505Z 14007KT 26/16 A2996 RMK A01 T02550163  RH  060%=      5-min Rain = 0
KNOR 190510Z 14008KT 26/16 A2996 RMK A01 T02550164  RH  060%=      5-min Rain = 0
KNOR 190515Z 14007KT 26/16 A2996 RMK A01 T02560164  RH  060%=      5-min Rain = 0
KNOR 190520Z 14007KT 25/17 A2996 RMK A01 T02540165  RH  060%=      5-min Rain = 0
KNOR 190525Z 15008KT 25/17 A2996 RMK A01 T02540165  RH  061%=      5-min Rain = 0
KNOR 190530Z 15009KT 26/17 A2996 RMK A01 T02550165  RH  061%=      5-min Rain = 0
KNOR 190535Z 15008KT 25/17 A2996 RMK A01 T02540166  RH  061%=      5-min Rain = 0
KNOR 190540Z 15007KT 25/17 A2996 RMK A01 T02530166  RH  062%=      5-min Rain = 0
KNOR 190545Z 14007KT 25/17 A2996 RMK A01 T02520166  RH  062%=      5-min Rain = 0
KNOR 190550Z 13007KT 25/17 A2996 RMK A01 T02500166  RH  063%=      5-min Rain = 0
KNOR 190555Z 13006KT 25/17 A2996 RMK A01 T02490167  RH  063%=      5-min Rain = 0
KNOR 190600Z 14007KT 25/17 A2996 RMK A01 T02480167  RH  064%=      5-min Rain = 0
KNOR 190605Z 13006KT 25/17 A2996 RMK A01 T02460167  RH  065%=      5-min Rain = 0
KNOR 190610Z 12005KT 25/17 A2996 RMK A01 T02450167  RH  065%=      5-min Rain = 0
KNOR 190615Z 12006KT 24/17 A2996 RMK A01 T02440167  RH  065%=      5-min Rain = 0
KNOR 190620Z 13006KT 24/17 A2996 RMK A01 T02440167  RH  066%=      5-min Rain = 0
KNOR 190625Z 13006KT 24/17 A2996 RMK A01 T02430168  RH  066%=      5-min Rain = 0
KNOR 190630Z 13006KT 24/17 A2996 RMK A01 T02420168  RH  067%=      5-min Rain = 0
KNOR 190635Z 13006KT 24/17 A2996 RMK A01 T02420168  RH  066%=      5-min Rain = 0
KNOR 190640Z 13006KT 24/17 A2996 RMK A01 T02410168  RH  067%=      5-min Rain = 0
KNOR 190645Z 12006KT 24/17 A2996 RMK A01 T02410168  RH  067%=      5-min Rain = 0
KNOR 190650Z 13005KT 24/17 A2996 RMK A01 T02390168  RH  068%=      5-min Rain = 0
KNOR 190655Z 13005KT 24/17 A2996 RMK A01 T02390169  RH  068%=      5-min Rain = 0
KNOR 190700Z 11004KT 24/17 A2996 RMK A01 T02380168  RH  069%=      5-min Rain = 0
KNOR 190705Z 12005KT 24/17 A2996 RMK A01 T02370169  RH  069%=      5-min Rain = 0
KNOR 190710Z 12005KT 24/17 A2996 RMK A01 T02360169  RH  069%=      5-min Rain = 0
KNOR 190715Z 13005KT 24/17 A2996 RMK A01 T02370169  RH  069%=      5-min Rain = 0
KNOR 190720Z 13005KT 24/17 A2996 RMK A01 T02370169  RH  069%=      5-min Rain = 0
KNOR 190725Z 13005KT 24/17 A2996 RMK A01 T02370169  RH  069%=      5-min Rain = 0
KNOR 190730Z 14006KT 24/17 A2996 RMK A01 T02360169  RH  069%=      5-min Rain = 0
KNOR 190735Z 14006KT 24/17 A2996 RMK A01 T02350169  RH  070%=      5-min Rain = 0
KNOR 190740Z 14005KT 23/17 A2996 RMK A01 T02340169  RH  070%=      5-min Rain = 0
KNOR 190745Z 12005KT 23/17 A2996 RMK A01 T02330169  RH  071%=      5-min Rain = 0
KNOR 190750Z 10005KT 23/17 A2996 RMK A01 T02320169  RH  071%=      5-min Rain = 0
KNOR 190755Z 11004KT 23/17 A2996 RMK A01 T02340169  RH  070%=      5-min Rain = 0
KNOR 190800Z 12005KT 24/17 A2996 RMK A01 T02350169  RH  070%=      5-min Rain = 0
KNOR 190805Z 11004KT 24/17 A2996 RMK A01 T02350169  RH  070%=      5-min Rain = 0
KNOR 190810Z 08004KT 23/17 A2996 RMK A01 T02330169  RH  071%=      5-min Rain = 0
KNOR 190815Z 10004KT 23/17 A2996 RMK A01 T02290169  RH  072%=      5-min Rain = 0
KNOR 190820Z 11004KT 23/17 A2996 RMK A01 T02300169  RH  072%=      5-min Rain = 0
KNOR 190825Z 10005KT 23/17 A2996 RMK A01 T02330170  RH  071%=      5-min Rain = 0
KNOR 190830Z 09004KT 23/17 A2996 RMK A01 T02310169  RH  072%=      5-min Rain = 0
KNOR 190835Z 10005KT 23/17 A2996 RMK A01 T02290170  RH  072%=      5-min Rain = 0
KNOR 190840Z 12005KT 23/17 A2996 RMK A01 T02300170  RH  072%=      5-min Rain = 0
KNOR 190845Z 12006KT 23/17 A2996 RMK A01 T02300170  RH  072%=      5-min Rain = 0
KNOR 190850Z 12006KT 23/17 A2996 RMK A01 T02290170  RH  073%=      5-min Rain = 0
KNOR 190855Z 12006KT 23/17 A2995 RMK A01 T02290170  RH  073%=      5-min Rain = 0
KNOR 190900Z 13006KT 23/17 A2995 RMK A01 T02280170  RH  073%=      5-min Rain = 0
KNOR 190905Z 13006KT 23/17 A2996 RMK A01 T02260170  RH  074%=      5-min Rain = 0
KNOR 190910Z 13005KT 23/17 A2996 RMK A01 T02250170  RH  075%=      5-min Rain = 0
KNOR 190915Z 13005KT 22/17 A2996 RMK A01 T02240170  RH  075%=      5-min Rain = 0
KNOR 190920Z 11005KT 22/17 A2996 RMK A01 T02240170  RH  075%=      5-min Rain = 0
KNOR 190925Z 11004KT 22/17 A2996 RMK A01 T02240170  RH  075%=      5-min Rain = 0
KNOR 190930Z 13005KT 22/17 A2996 RMK A01 T02240170  RH  075%=      5-min Rain = 0
KNOR 190935Z 12005KT 22/17 A2996 RMK A01 T02240170  RH  075%=      5-min Rain = 0
KNOR 190940Z 13004KT 22/17 A2996 RMK A01 T02230170  RH  076%=      5-min Rain = 0
KNOR 190945Z 13004KT 22/17 A2996 RMK A01 T02210170  RH  077%=      5-min Rain = 0
KNOR 190950Z 12004KT 22/17 A2996 RMK A01 T02190170  RH  078%=      5-min Rain = 0
KNOR 190955Z 13003KT 22/17 A2996 RMK A01 T02190171  RH  078%=      5-min Rain = 0
KNOR 191000Z 15003KT 22/17 A2996 RMK A01 T02180170  RH  078%=      5-min Rain = 0
KNOR 191005Z 16003KT 21/17 A2996 RMK A01 T02140169  RH  079%=      5-min Rain = 0
KNOR 191010Z 15004KT 21/17 A2996 RMK A01 T02120169  RH  080%=      5-min Rain = 0
KNOR 191015Z 14004KT 21/17 A2996 RMK A01 T02130170  RH  080%=      5-min Rain = 0
KNOR 191020Z 13004KT 21/17 A2996 RMK A01 T02140170  RH  080%=      5-min Rain = 0
KNOR 191025Z 12005KT 21/17 A2996 RMK A01 T02140170  RH  080%=      5-min Rain = 0
KNOR 191030Z 12004KT 21/17 A2996 RMK A01 T02140171  RH  080%=      5-min Rain = 0
KNOR 191035Z 12004KT 21/17 A2996 RMK A01 T02140171  RH  080%=      5-min Rain = 0
KNOR 191040Z 12005KT 21/17 A2996 RMK A01 T02130171  RH  080%=      5-min Rain = 0
KNOR 191045Z 13004KT 21/17 A2996 RMK A01 T02140171  RH  080%=      5-min Rain = 0
KNOR 191050Z 12004KT 21/17 A2996 RMK A01 T02140171  RH  080%=      5-min Rain = 0
KNOR 191055Z 10004KT 21/17 A2996 RMK A01 T02120171  RH  081%=      5-min Rain = 0
KNOR 191100Z 09004KT 21/17 A2996 RMK A01 T02100170  RH  082%=      5-min Rain = 0
KNOR 191105Z 09004KT 21/17 A2996 RMK A01 T02100171  RH  082%=      5-min Rain = 0
KNOR 191110Z 11004KT 21/17 A2997 RMK A01 T02100171  RH  082%=      5-min Rain = 0
KNOR 191115Z 11004KT 21/17 A2997 RMK A01 T02110171  RH  082%=      5-min Rain = 0
KNOR 191120Z 09003KT 21/17 A2997 RMK A01 T02100171  RH  082%=      5-min Rain = 0
KNOR 191125Z 11002KT 21/17 A2997 RMK A01 T02090171  RH  083%=      5-min Rain = 0
KNOR 191130Z 11003KT 21/17 A2997 RMK A01 T02100171  RH  082%=      5-min Rain = 0
KNOR 191135Z 11003KT 21/17 A2997 RMK A01 T02080171  RH  083%=      5-min Rain = 0
KNOR 191140Z 10003KT 21/17 A2997 RMK A01 T02080171  RH  084%=      5-min Rain = 0
KNOR 191145Z 12002KT 21/17 A2997 RMK A01 T02080171  RH  083%=      5-min Rain = 0
KNOR 191150Z 13002KT 21/17 A2997 RMK A01 T02080171  RH  084%=      5-min Rain = 0
KNOR 191155Z 13003KT 21/17 A2997 RMK A01 T02090171  RH  083%=      5-min Rain = 0
KNOR 191200Z 12004KT 21/17 A2997 RMK A01 T02070171  RH  084%=      5-min Rain = 0
KNOR 191205Z 11004KT 21/17 A2997 RMK A01 T02060171  RH  084%=      5-min Rain = 0
KNOR 191210Z 10005KT 21/17 A2997 RMK A01 T02050171  RH  085%=      5-min Rain = 0
KNOR 191215Z 10004KT 21/17 A2996 RMK A01 T02050171  RH  085%=      5-min Rain = 0
KNOR 191220Z 09004KT 21/17 A2996 RMK A01 T02050171  RH  085%=      5-min Rain = 0
KNOR 191225Z 12002KT 20/17 A2996 RMK A01 T02040171  RH  085%=      5-min Rain = 0
KNOR 191230Z 27001KT 20/17 A2997 RMK A01 T01990168  RH  086%=      5-min Rain = 0
KNOR 191235Z 27001KT 19/17 A2997 RMK A01 T01920166  RH  089%=      5-min Rain = 0
KNOR 191240Z 27002KT 19/17 A2997 RMK A01 T01910167  RH  090%=      5-min Rain = 0
KNOR 191245Z 26001KT 19/17 A2997 RMK A01 T01910168  RH  090%=      5-min Rain = 0
KNOR 191250Z 24000KT 19/17 A2997 RMK A01 T01940170  RH  090%=      5-min Rain = 0
KNOR 191255Z 00000KT 20/17 A2998 RMK A01 T01980171  RH  088%=      5-min Rain = 0
KNOR 191300Z 18000KT 21/17 A2998 RMK A01 T02050172  RH  086%=      5-min Rain = 0
KNOR 191305Z 20001KT 21/17 A2998 RMK A01 T02060171  RH  085%=      5-min Rain = 0
KNOR 191310Z 00000KT 21/17 A2998 RMK A01 T02100174  RH  084%=      5-min Rain = 0
KNOR 191315Z 14000KT 22/18 A2998 RMK A01 T02170175  RH  081%=      5-min Rain = 0
KNOR 191320Z 12002KT 22/18 A2998 RMK A01 T02230175  RH  078%=      5-min Rain = 0
KNOR 191325Z 11002KT 23/18 A2998 RMK A01 T02270176  RH  076%=      5-min Rain = 0
KNOR 191330Z 10002KT 23/18 A2998 RMK A01 T02300176  RH  075%=      5-min Rain = 0
KNOR 191335Z 10002KT 23/18 A2998 RMK A01 T02340177  RH  074%=      5-min Rain = 0
KNOR 191340Z 11003KT 24/18 A2998 RMK A01 T02360177  RH  073%=      5-min Rain = 0
KNOR 191345Z 11004KT 24/18 A2998 RMK A01 T02380177  RH  073%=      5-min Rain = 0
KNOR 191350Z 11004KT 24/18 A2998 RMK A01 T02390178  RH  072%=      5-min Rain = 0
KNOR 191355Z 11004KT 24/18 A2997 RMK A01 T02420179  RH  072%=      5-min Rain = 0
KNOR 191400Z 10004KT 25/18 A2998 RMK A01 T02460180  RH  070%=      5-min Rain = 0
KNOR 191405Z 12004KT 25/18 A2998 RMK A01 T02470180  RH  070%=      5-min Rain = 0
KNOR 191410Z 15005KT 25/18 A2998 RMK A01 T02530180  RH  067%=      5-min Rain = 0
KNOR 191415Z 15004KT 26/18 A2998 RMK A01 T02580181  RH  066%=      5-min Rain = 0
KNOR 191420Z 14005KT 26/18 A2998 RMK A01 T02630182  RH  064%=      5-min Rain = 0
KNOR 191425Z 16006KT 27/18 A2998 RMK A01 T02650179  RH  063%=      5-min Rain = 0
KNOR 191430Z 16006KT 27/18 A2998 RMK A01 T02680180  RH  061%=      5-min Rain = 0
KNOR 191435Z 16005KT 27/18 A2998 RMK A01 T02700180  RH  061%=      5-min Rain = 0
KNOR 191440Z 16006KT 28/18 A2998 RMK A01 T02750180  RH  060%=      5-min Rain = 0
KNOR 191445Z 15005KT 28/18 A2998 RMK A01 T02760179  RH  059%=      5-min Rain = 0
KNOR 191450Z 16007KT 27/18 A2998 RMK A01 T02740179  RH  059%=      5-min Rain = 0
KNOR 191455Z 16007KT 28/18 A2999 RMK A01 T02790180  RH  058%=      5-min Rain = 0
KNOR 191500Z 16008KT 28/18 A2999 RMK A01 T02780178  RH  057%=      5-min Rain = 0
KNOR 191505Z 17006KT 28/18 A2999 RMK A01 T02800179  RH  057%=      5-min Rain = 0
KNOR 191510Z 17006KT 28/18 A2999 RMK A01 T02830179  RH  056%=      5-min Rain = 0
KNOR 191515Z 18005KT 29/18 A2999 RMK A01 T02860180  RH  056%=      5-min Rain = 0
KNOR 191520Z 15007KT 29/18 A2999 RMK A01 T02870179  RH  055%=      5-min Rain = 0
KNOR 191525Z 18006G11KT 28/18 A2999 RMK A01 T02840179  RH  056%=      5-min Rain = 0
KNOR 191530Z 16006KT 29/18 A2999 RMK A01 T02880179  RH  055%=      5-min Rain = 0
KNOR 191535Z 17005KT 29/18 A2999 RMK A01 T02900179  RH  054%=      5-min Rain = 0
KNOR 191540Z 17005KT 29/18 A2999 RMK A01 T02910179  RH  054%=      5-min Rain = 0
KNOR 191545Z 16004KT 29/18 A2999 RMK A01 T02880177  RH  054%=      5-min Rain = 0
KNOR 191550Z 16006KT 29/18 A2999 RMK A01 T02930179  RH  053%=      5-min Rain = 0
KNOR 191555Z 17006KT 30/18 A2998 RMK A01 T02960179  RH  052%=      5-min Rain = 0
KNOR 191600Z 18005KT 30/18 A2998 RMK A01 T02970180  RH  052%=      5-min Rain = 0
KNOR 191605Z 15006G11KT 30/18 A2998 RMK A01 T03010177  RH  050%=      5-min Rain = 0
KNOR 191610Z 13006KT 30/17 A2998 RMK A01 T02980174  RH  050%=      5-min Rain = 0
KNOR 191615Z 16005G10KT 30/18 A2998 RMK A01 T03030176  RH  049%=      5-min Rain = 0
KNOR 191620Z 13006KT 30/18 A2998 RMK A01 T03030175  RH  049%=      5-min Rain = 0
KNOR 191625Z 11006KT 30/18 A2998 RMK A01 T03030175  RH  049%=      5-min Rain = 0
KNOR 191630Z 12005G10KT 30/17 A2998 RMK A01 T03030174  RH  048%=      5-min Rain = 0
KNOR 191635Z 13007KT 31/17 A2998 RMK A01 T03050174  RH  048%=      5-min Rain = 0
KNOR 191640Z 12006KT 30/17 A2998 RMK A01 T03040173  RH  048%=      5-min Rain = 0
KNOR 191645Z 13007KT 31/17 A2997 RMK A01 T03050173  RH  047%=      5-min Rain = 0
KNOR 191650Z 15006KT 31/17 A2997 RMK A01 T03080174  RH  047%=      5-min Rain = 0
KNOR 191655Z 15007KT 31/17 A2997 RMK A01 T03120174  RH  046%=      5-min Rain = 0
KNOR 191700Z 14007KT 31/17 A2997 RMK A01 T03120174  RH  046%=      5-min Rain = 0
KNOR 191705Z 13008KT 31/17 A2997 RMK A01 T03110174  RH  046%=      5-min Rain = 0
KNOR 191710Z 14007G12KT 31/17 A2997 RMK A01 T03100173  RH  046%=      5-min Rain = 0
KNOR 191715Z 13007KT 31/18 A2997 RMK A01 T03110175  RH  047%=      5-min Rain = 0
KNOR 191720Z 14007G12KT 32/18 A2997 RMK A01 T03160175  RH  045%=      5-min Rain = 0
KNOR 191725Z 12007KT 31/17 A2996 RMK A01 T03100171  RH  046%=      5-min Rain = 0
KNOR 191730Z 09005KT 31/17 A2996 RMK A01 T03120174  RH  046%=      5-min Rain = 0
KNOR 191735Z 09005KT 31/18 A2996 RMK A01 T03120175  RH  046%=      5-min Rain = 0
KNOR 191740Z 14007KT 32/17 A2995 RMK A01 T03170172  RH  044%=      5-min Rain = 0
KNOR 191745Z 12004KT 32/17 A2995 RMK A01 T03170170  RH  044%=      5-min Rain = 0
KNOR 191750Z 11006G12KT 32/17 A2995 RMK A01 T03210173  RH  043%=      5-min Rain = 0
KNOR 191755Z 13007KT 32/17 A2995 RMK A01 T03210170  RH  043%=      5-min Rain = 0
KNOR 191800Z 12006G11KT 32/17 A2995 RMK A01 T03230171  RH  042%=      5-min Rain = 0
KNOR 191805Z 10005G11KT 32/17 A2995 RMK A01 T03190170  RH  043%=      5-min Rain = 0
KNOR 191810Z 15008KT 33/17 A2995 RMK A01 T03260168  RH  041%=      5-min Rain = 0
KNOR 191815Z 17008KT 32/17 A2994 RMK A01 T03210169  RH  042%=      5-min Rain = 0
KNOR 191820Z 14008G13KT 33/17 A2994 RMK A01 T03260170  RH  042%=      5-min Rain = 0
KNOR 191825Z 12007G13KT 32/17 A2994 RMK A01 T03200167  RH  042%=      5-min Rain = 0
KNOR 191830Z 13004G10KT 33/17 A2994 RMK A01 T03250166  RH  040%=      5-min Rain = 0
KNOR 191835Z 13007KT 33/17 A2994 RMK A01 T03320167  RH  039%=      5-min Rain = 0
KNOR 191840Z 16005KT 33/17 A2994 RMK A01 T03330171  RH  040%=      5-min Rain = 0
KNOR 191845Z 15008KT 33/17 A2994 RMK A01 T03310171  RH  040%=      5-min Rain = 0
KNOR 191850Z 09008KT 33/17 A2993 RMK A01 T03280168  RH  040%=      5-min Rain = 0
KNOR 191855Z 08006KT 33/17 A2993 RMK A01 T03280168  RH  040%=      5-min Rain = 0
KNOR 191900Z 10005G12KT 33/17 A2993 RMK A01 T03250166  RH  041%=      5-min Rain = 0
KNOR 191905Z 09008KT 33/16 A2993 RMK A01 T03280164  RH  039%=      5-min Rain = 0
KNOR 191910Z 14006G13KT 32/16 A2993 RMK A01 T03220164  RH  041%=      5-min Rain = 0
KNOR 191915Z 09007G12KT 33/17 A2993 RMK A01 T03300165  RH  039%=      5-min Rain = 0
KNOR 191920Z 11009G14KT 33/16 A2993 RMK A01 T03340163  RH  038%=      5-min Rain = 0
KNOR 191925Z 10007KT 34/16 A2992 RMK A01 T03380161  RH  036%=      5-min Rain = 0
KNOR 191930Z 10006G11KT 33/16 A2992 RMK A01 T03340159  RH  037%=      5-min Rain = 0
KNOR 191935Z 11007G12KT 33/16 A2992 RMK A01 T03320159  RH  037%=      5-min Rain = 0
KNOR 191940Z 11006G11KT 34/16 A2992 RMK A01 T03350159  RH  037%=      5-min Rain = 0
KNOR 191945Z 11006G11KT 34/16 A2992 RMK A01 T03390160  RH  036%=      5-min Rain = 0
KNOR 191950Z 08006KT 33/16 A2992 RMK A01 T03290160  RH  038%=      5-min Rain = 0
KNOR 191955Z 10008KT 32/16 A2991 RMK A01 T03240162  RH  040%=      5-min Rain = 0
KNOR 192000Z 09005G12KT 32/16 A2991 RMK A01 T03220162  RH  040%=      5-min Rain = 0
KNOR 192005Z 09008KT 33/16 A2991 RMK A01 T03320164  RH  038%=      5-min Rain = 0
KNOR 192010Z 11008G13KT 34/17 A2991 RMK A01 T03350166  RH  038%=      5-min Rain = 0
KNOR 192015Z 10010KT 34/17 A2991 RMK A01 T03360169  RH  039%=      5-min Rain = 0
KNOR 192020Z 09007G12KT 33/17 A299 RMK A01 T03330169  RH  039%=      5-min Rain = 0
KNOR 192025Z 09008G13KT 33/17 A299 RMK A01 T03340168  RH  039%=      5-min Rain = 0
KNOR 192030Z 11010G15KT 33/17 A299 RMK A01 T03320167  RH  039%=      5-min Rain = 0
KNOR 192035Z 12008G14KT 34/17 A299 RMK A01 T03390165  RH  037%=      5-min Rain = 0
KNOR 192040Z 11007G13KT 34/17 A2989 RMK A01 T03400167  RH  038%=      5-min Rain = 0
KNOR 192045Z 11008G13KT 34/17 A2989 RMK A01 T03370168  RH  038%=      5-min Rain = 0
KNOR 192050Z 10008G15KT 34/17 A2989 RMK A01 T03360166  RH  038%=      5-min Rain = 0
KNOR 192055Z 10008KT 34/17 A2988 RMK A01 T03380166  RH  038%=      5-min Rain = 0
KNOR 192100Z 11008G15KT 34/16 A2988 RMK A01 T03360162  RH  037%=      5-min Rain = 0
KNOR 192105Z 11009G16KT 34/16 A2987 RMK A01 T03360161  RH  037%=      5-min Rain = 0
KNOR 192110Z 11010G15KT 33/16 A2987 RMK A01 T03340157  RH  036%=      5-min Rain = 0
KNOR 192115Z 12007KT 33/16 A2987 RMK A01 T03340159  RH  037%=      5-min Rain = 0
KNOR 192120Z 11012G19KT 33/16 A2986 RMK A01 T03310161  RH  038%=      5-min Rain = 0
KNOR 192125Z 11007G12KT 33/16 A2986 RMK A01 T03300160  RH  038%=      5-min Rain = 0
KNOR 192130Z 11009G15KT 34/16 A2986 RMK A01 T03360158  RH  036%=      5-min Rain = 0
KNOR 192135Z 11008G14KT 34/16 A2986 RMK A01 T03360161  RH  037%=      5-min Rain = 0
KNOR 192140Z 10010KT 33/16 A2986 RMK A01 T03340160  RH  037%=      5-min Rain = 0
KNOR 192145Z 11009G14KT 33/16 A2986 RMK A01 T03290156  RH  037%=      5-min Rain = 0
KNOR 192150Z 10010G16KT 33/16 A2986 RMK A01 T03320158  RH  037%=      5-min Rain = 0
KNOR 192155Z 11010KT 33/16 A2986 RMK A01 T03310158  RH  037%=      5-min Rain = 0
KNOR 192200Z 12012KT 32/15 A2986 RMK A01 T03230154  RH  038%=      5-min Rain = 0
KNOR 192205Z 12009KT 33/16 A2986 RMK A01 T03280155  RH  037%=      5-min Rain = 0
KNOR 192210Z 11010G16KT 33/16 A2986 RMK A01 T03270155  RH  037%=      5-min Rain = 0
KNOR 192215Z 12010G15KT 33/15 A2986 RMK A01 T03290153  RH  036%=      5-min Rain = 0
KNOR 192220Z 10010G17KT 32/15 A2986 RMK A01 T03200152  RH  038%=      5-min Rain = 0
KNOR 192225Z 12012KT 33/15 A2986 RMK A01 T03250153  RH  037%=      5-min Rain = 0
KNOR 192230Z 11010G15KT 33/15 A2986 RMK A01 T03320154  RH  036%=      5-min Rain = 0
KNOR 192235Z 12010G15KT 33/15 A2986 RMK A01 T03290151  RH  036%=      5-min Rain = 0
KNOR 192240Z 11011KT 33/15 A2986 RMK A01 T03270151  RH  036%=      5-min Rain = 0
KNOR 192245Z 12010G16KT 33/15 A2986 RMK A01 T03280151  RH  036%=      5-min Rain = 0
KNOR 192250Z 10010G16KT 33/15 A2986 RMK A01 T03270153  RH  037%=      5-min Rain = 0
KNOR 192255Z 12012G17KT 33/15 A2986 RMK A01 T03250150  RH  036%=      5-min Rain = 0
KNOR 192300Z 11010G16KT 32/15 A2986 RMK A01 T03240148  RH  036%=      5-min Rain = 0
KNOR 192305Z 11011G18KT 32/15 A2986 RMK A01 T03230151  RH  037%=      5-min Rain = 0
KNOR 192310Z 10010G15KT 32/15 A2986 RMK A01 T03210153  RH  038%=      5-min Rain = 0
KNOR 192315Z 11009G15KT 32/15 A2986 RMK A01 T03220153  RH  038%=      5-min Rain = 0
KNOR 192320Z 11012KT 32/16 A2986 RMK A01 T03180155  RH  039%=      5-min Rain = 0
KNOR 192325Z 11012G17KT 32/16 A2986 RMK A01 T03170155  RH  039%=      5-min Rain = 0
KNOR 192330Z 11010G16KT 32/16 A2986 RMK A01 T03160155  RH  040%=      5-min Rain = 0
KNOR 192335Z 10010G15KT 32/15 A2986 RMK A01 T03150154  RH  040%=      5-min Rain = 0
KNOR 192340Z 11011KT 31/16 A2986 RMK A01 T03140155  RH  040%=      5-min Rain = 0
KNOR 192345Z 12011G16KT 31/16 A2985 RMK A01 T03110157  RH  041%=      5-min Rain = 0
KNOR 192350Z 11009G16KT 31/16 A2985 RMK A01 T03050157  RH  043%=      5-min Rain = 0
KNOR 192355Z 10011G17KT 30/16 A2986 RMK A01 T03020158  RH  044%=      5-min Rain = 0
KNOR 200000Z 11010G16KT 30/16 A2986 RMK A01 T03000161  RH  045%=      5-min Rain = 0
KNOR 200005Z 10011G17KT 30/16 A2986 RMK A01 T02980162  RH  046%=      5-min Rain = 0
KNOR 200010Z 10012G18KT 30/17 A2985 RMK A01 T02960165  RH  047%=      5-min Rain = 0
KNOR 200015Z 10011G16KT 29/17 A2985 RMK A01 T02940165  RH  048%=      5-min Rain = 0
KNOR 200020Z 10012G18KT 29/17 A2985 RMK A01 T02920166  RH  049%=      5-min Rain = 0
KNOR 200025Z 11011G20KT 29/17 A2985 RMK A01 T02900165  RH  049%=      5-min Rain = 0
KNOR 200030Z 11013G18KT 29/16 A2986 RMK A01 T02890164  RH  049%=      5-min Rain = 0
KNOR 200035Z 10010G15KT 29/16 A2987 RMK A01 T02880164  RH  049%=      5-min Rain = 0
KNOR 200040Z 10009G14KT 29/16 A2988 RMK A01 T02860164  RH  050%=      5-min Rain = 0
KNOR 200045Z 10010G16KT 29/16 A2989 RMK A01 T02850164  RH  050%=      5-min Rain = 0
KNOR 200050Z 10008G13KT 28/16 A299 RMK A01 T02840164  RH  051%=      5-min Rain = 0
KNOR 200055Z 11011G17KT 28/17 A299 RMK A01 T02840165  RH  051%=      5-min Rain = 0
KNOR 200100Z 10010G17KT 28/17 A299 RMK A01 T02830166  RH  052%=      5-min Rain = 0
KNOR 200105Z 10007G13KT 28/17 A299 RMK A01 T02810166  RH  052%=      5-min Rain = 0
KNOR 200110Z 10009G15KT 28/17 A299 RMK A01 T02790166  RH  053%=      5-min Rain = 0
KNOR 200115Z 10011G16KT 28/17 A299 RMK A01 T02790166  RH  053%=      5-min Rain = 0
KNOR 200120Z 10011G17KT 28/17 A299 RMK A01 T02770168  RH  054%=      5-min Rain = 0
KNOR 200125Z 09011G16KT 28/17 A299 RMK A01 T02760169  RH  055%=      5-min Rain = 0
KNOR 200130Z 10010G17KT 27/17 A2991 RMK A01 T02740170  RH  056%=      5-min Rain = 0
KNOR 200135Z 10010G17KT 27/17 A2991 RMK A01 T02730170  RH  056%=      5-min Rain = 0
KNOR 200140Z 10011G17KT 27/17 A2992 RMK A01 T02720169  RH  056%=      5-min Rain = 0
KNOR 200145Z 09011G17KT 27/17 A2993 RMK A01 T02710169  RH  056%=      5-min Rain = 0
KNOR 200150Z 09010G15KT 27/17 A2993 RMK A01 T02700169  RH  057%=      5-min Rain = 0
KNOR 200155Z 09009G15KT 27/17 A2994 RMK A01 T02690169  RH  057%=      5-min Rain = 0
KNOR 200200Z 09009G15KT 27/17 A2994 RMK A01 T02680169  RH  057%=      5-min Rain = 0
KNOR 200205Z 09008KT 27/17 A2994 RMK A01 T02670169  RH  058%=      5-min Rain = 0
KNOR 200210Z 09010KT 27/17 A2995 RMK A01 T02670169  RH  058%=      5-min Rain = 0
KNOR 200215Z 08009KT 27/17 A2995 RMK A01 T02660169  RH  058%=      5-min Rain = 0
KNOR 200220Z 08008G13KT 27/17 A2995 RMK A01 T02650170  RH  059%=      5-min Rain = 0
KNOR 200225Z 08008KT 26/17 A2996 RMK A01 T02640170  RH  059%=      5-min Rain = 0
KNOR 200230Z 08008KT 26/17 A2996 RMK A01 T02640171  RH  059%=      5-min Rain = 0
KNOR 200235Z 08008KT 26/17 A2996 RMK A01 T02620171  RH  060%=      5-min Rain = 0
KNOR 200240Z 08007G12KT 26/17 A2996 RMK A01 T02620171  RH  060%=      5-min Rain = 0
KNOR 200245Z 08008G14KT 26/17 A2997 RMK A01 T02620171  RH  060%=      5-min Rain = 0
KNOR 200250Z 08006KT 26/17 A2998 RMK A01 T02610171  RH  060%=      5-min Rain = 0
KNOR 200255Z 09005KT 26/17 A2998 RMK A01 T02600171  RH  061%=      5-min Rain = 0
KNOR 200300Z 07005G10KT 26/17 A2999 RMK A01 T02600171  RH  061%=      5-min Rain = 0
KNOR 200305Z 26008G20KT 25/17 A30 RMK A01 T02500169  RH  064%=      5-min Rain = 0
KNOR 200310Z 30014G21KT 22/17 A3001 RMK A01 T02210168  RH  075%=      5-min Rain = 0
KNOR 200315Z 29013G24KT 22/17 A3001 RMK A01 T02160165  RH  076%=      5-min Rain = 0
KNOR 200320Z 29013G24KT 21/17 A30 RMK A01 T02120168  RH  080%=      5-min Rain = 0
KNOR 200325Z 30008KT 22/17 A3001 RMK A01 T02180174  RH  080%=      5-min Rain = 0
KNOR 200330Z 31008G13KT 22/18 A3001 RMK A01 T02150175  RH  082%=      5-min Rain = 0
KNOR 200335Z 31009KT 21/18 A3001 RMK A01 T02090175  RH  085%=      5-min Rain = 0
KNOR 200340Z 31009G17KT 21/18 A3001 RMK A01 T02090175  RH  086%=      5-min Rain = 0
KNOR 200345Z 31010KT 21/18 A3002 RMK A01 T02080176  RH  086%=      5-min Rain = 0
KNOR 200350Z 32009KT 21/18 A3002 RMK A01 T02070177  RH  087%=      5-min Rain = 0
KNOR 200355Z 32009KT 21/18 A3002 RMK A01 T02080178  RH  088%=      5-min Rain = 0
KNOR 200400Z 32009KT 21/18 A3002 RMK A01 T02080180  RH  088%=      5-min Rain = 0.01
KNOR 200405Z 32008KT 21/18 A3003 RMK A01 T02080182  RH  090%=      5-min Rain = 0
KNOR 200410Z 32008KT 21/18 A3003 RMK A01 T02080183  RH  090%=      5-min Rain = 0.01
KNOR 200415Z 32009KT 21/18 A3003 RMK A01 T02090184  RH  091%=      5-min Rain = 0.01
KNOR 200420Z 33010KT 21/19 A3003 RMK A01 T02080186  RH  092%=      5-min Rain = 0.01
KNOR 200425Z 33010KT 21/19 A3003 RMK A01 T02080187  RH  093%=      5-min Rain = 0.02
KNOR 200430Z 34009G14KT 21/19 A3003 RMK A01 T02080189  RH  093%=      5-min Rain = 0
KNOR 200435Z 35009G15KT 21/19 A3003 RMK A01 T02100190  RH  094%=      5-min Rain = 0.01
KNOR 200440Z 01009KT 21/19 A3002 RMK A01 T02110192  RH  094%=      5-min Rain = 0
KNOR 200445Z 02011KT 21/19 A3002 RMK A01 T02130194  RH  094%=      5-min Rain = 0
KNOR 200450Z 03011G16KT 21/20 A3001 RMK A01 T02140195  RH  094%=      5-min Rain = 0.01
KNOR 200455Z 04012G17KT 21/19 A30 RMK A01 T02140194  RH  094%=      5-min Rain = 0.01

Page generated in 0.0356 seconds.